Terminal Aerodrome Forecast
Issued by NWS Wilmington, NC

Home | Current Version | Previous Version | Text Only | Print | Product List | Glossary On
Versions: 1 2 3 4 5 6 7 8 9 10 11 12 13 14 15 16 17
000
FTUS42 KILM 031148 CCB
TAFMYR
TAF COR
KMYR 031148Z 0312/0412 25009KT P6SM VCSH SCT015 BKN050
      TEMPO 0312/0315 5SM -SHRA BKN015
     FM031800 VRB20KT 3SM SHRA VCTS BKN020 BKN050CB
     FM032000 21015KT P6SM VCSH SCT060 BKN120
     FM040400 24007KT P6SM SCT070 BKN100=

USA.gov is the U.S. government's official web portal to all federal, state and local government web resources and services.